sensor_id;sensor_type;location;lat;lon;timestamp;pressure;altitude;pressure_sealevel;temperature;humidity
59106;BME280;44891;50.204;8.132;2023-11-21T00:03:47;97518.56;;;8.23;100.00
59106;BME280;44891;50.204;8.132;2023-11-21T00:07:50;97515.00;;;8.29;100.00
59106;BME280;44891;50.204;8.132;2023-11-21T00:11:52;97519.44;;;8.28;100.00
59106;BME280;44891;50.204;8.132;2023-11-21T00:15:54;97518.41;;;8.29;100.00
59106;BME280;44891;50.204;8.132;2023-11-21T00:19:56;97527.44;;;8.22;100.00
59106;BME280;44891;50.204;8.132;2023-11-21T00:23:59;97520.56;;;8.32;100.00
59106;BME280;44891;50.204;8.132;2023-11-21T00:28:01;97528.72;;;8.36;100.00
59106;BME280;44891;50.204;8.132;2023-11-21T00:32:04;97531.66;;;8.39;100.00
59106;BME280;44891;50.204;8.132;2023-11-21T00:36:07;97529.41;;;8.31;100.00
59106;BME280;44891;50.204;8.132;2023-11-21T00:40:12;97528.25;;;8.39;100.00
59106;BME280;44891;50.204;8.132;2023-11-21T00:44:15;97528.94;;;8.34;100.00
59106;BME280;44891;50.204;8.132;2023-11-21T00:48:17;97530.69;;;8.46;100.00
59106;BME280;44891;50.204;8.132;2023-11-21T00:52:19;97530.91;;;8.44;100.00
59106;BME280;44891;50.204;8.132;2023-11-21T00:56:22;97528.47;;;8.37;100.00
59106;BME280;44891;50.204;8.132;2023-11-21T01:00:24;97529.03;;;8.39;100.00
59106;BME280;44891;50.204;8.132;2023-11-21T01:04:26;97537.03;;;8.33;100.00
59106;BME280;44891;50.204;8.132;2023-11-21T01:08:28;97547.09;;;8.24;100.00
59106;BME280;44891;50.204;8.132;2023-11-21T01:12:33;97556.06;;;8.28;100.00
59106;BME280;44891;50.204;8.132;2023-11-21T01:16:36;97557.88;;;8.28;100.00
59106;BME280;44891;50.204;8.132;2023-11-21T01:20:38;97558.75;;;8.33;100.00
59106;BME280;44891;50.204;8.132;2023-11-21T01:24:40;97567.63;;;8.32;100.00
59106;BME280;44891;50.204;8.132;2023-11-21T01:28:44;97567.81;;;8.26;100.00
59106;BME280;44891;50.204;8.132;2023-11-21T01:32:45;97570.16;;;8.27;100.00
59106;BME280;44891;50.204;8.132;2023-11-21T01:36:48;97572.22;;;8.08;100.00
59106;BME280;44891;50.204;8.132;2023-11-21T01:40:50;97576.50;;;8.14;100.00
59106;BME280;44891;50.204;8.132;2023-11-21T01:44:54;97589.97;;;8.06;100.00
59106;BME280;44891;50.204;8.132;2023-11-21T01:48:56;97583.41;;;8.21;100.00
59106;BME280;44891;50.204;8.132;2023-11-21T01:52:58;97594.00;;;7.97;100.00
59106;BME280;44891;50.204;8.132;2023-11-21T01:56:59;97592.59;;;8.06;100.00
59106;BME280;44891;50.204;8.132;2023-11-21T02:01:05;97597.19;;;8.16;100.00
59106;BME280;44891;50.204;8.132;2023-11-21T02:05:07;97588.78;;;7.97;100.00
59106;BME280;44891;50.204;8.132;2023-11-21T02:09:09;97599.41;;;8.07;100.00
59106;BME280;44891;50.204;8.132;2023-11-21T02:13:15;97590.91;;;8.17;100.00
59106;BME280;44891;50.204;8.132;2023-11-21T02:17:19;97587.84;;;8.20;100.00
59106;BME280;44891;50.204;8.132;2023-11-21T02:21:21;97593.53;;;8.00;100.00
59106;BME280;44891;50.204;8.132;2023-11-21T02:25:24;97591.00;;;8.05;100.00
59106;BME280;44891;50.204;8.132;2023-11-21T02:29:26;97598.78;;;8.17;100.00
59106;BME280;44891;50.204;8.132;2023-11-21T02:33:29;97592.59;;;8.06;100.00
59106;BME280;44891;50.204;8.132;2023-11-21T02:37:30;97599.25;;;8.14;100.00
59106;BME280;44891;50.204;8.132;2023-11-21T02:41:34;97604.72;;;8.12;100.00
59106;BME280;44891;50.204;8.132;2023-11-21T02:45:36;97612.72;;;8.06;100.00
59106;BME280;44891;50.204;8.132;2023-11-21T02:49:38;97606.22;;;8.08;100.00
59106;BME280;44891;50.204;8.132;2023-11-21T02:53:39;97608.28;;;8.06;100.00
59106;BME280;44891;50.204;8.132;2023-11-21T02:57:44;97616.53;;;8.15;100.00
59106;BME280;44891;50.204;8.132;2023-11-21T03:01:45;97621.03;;;8.03;100.00
59106;BME280;44891;50.204;8.132;2023-11-21T03:05:47;97617.91;;;7.89;100.00
59106;BME280;44891;50.204;8.132;2023-11-21T03:09:49;97621.00;;;7.86;100.00
59106;BME280;44891;50.204;8.132;2023-11-21T03:13:52;97627.69;;;7.94;100.00
59106;BME280;44891;50.204;8.132;2023-11-21T03:17:54;97624.91;;;8.00;100.00
59106;BME280;44891;50.204;8.132;2023-11-21T03:21:56;97629.75;;;8.08;100.00
59106;BME280;44891;50.204;8.132;2023-11-21T03:25:58;97625.22;;;8.04;100.00
59106;BME280;44891;50.204;8.132;2023-11-21T03:30:02;97637.91;;;7.95;100.00
59106;BME280;44891;50.204;8.132;2023-11-21T03:34:04;97642.25;;;7.89;100.00
59106;BME280;44891;50.204;8.132;2023-11-21T03:38:08;97643.28;;;7.88;100.00
59106;BME280;44891;50.204;8.132;2023-11-21T03:42:11;97653.72;;;7.88;100.00
59106;BME280;44891;50.204;8.132;2023-11-21T03:46:14;97657.78;;;7.96;100.00
59106;BME280;44891;50.204;8.132;2023-11-21T03:50:17;97663.94;;;7.90;100.00
59106;BME280;44891;50.204;8.132;2023-11-21T03:54:19;97665.16;;;7.99;100.00
59106;BME280;44891;50.204;8.132;2023-11-21T03:58:21;97665.38;;;7.98;100.00
59106;BME280;44891;50.204;8.132;2023-11-21T04:02:24;97672.13;;;7.94;100.00
59106;BME280;44891;50.204;8.132;2023-11-21T04:06:27;97664.50;;;7.92;100.00
59106;BME280;44891;50.204;8.132;2023-11-21T04:10:29;97674.09;;;7.86;100.00
59106;BME280;44891;50.204;8.132;2023-11-21T04:14:31;97684.97;;;7.67;100.00
59106;BME280;44891;50.204;8.132;2023-11-21T04:18:34;97700.22;;;7.46;100.00
59106;BME280;44891;50.204;8.132;2023-11-21T04:22:37;97707.81;;;7.59;100.00
59106;BME280;44891;50.204;8.132;2023-11-21T04:26:41;97709.34;;;7.72;100.00
59106;BME280;44891;50.204;8.132;2023-11-21T04:30:43;97704.03;;;7.67;100.00
59106;BME280;44891;50.204;8.132;2023-11-21T04:34:46;97707.22;;;7.69;100.00
59106;BME280;44891;50.204;8.132;2023-11-21T04:38:48;97709.03;;;7.57;100.00
59106;BME280;44891;50.204;8.132;2023-11-21T04:42:49;97730.16;;;7.67;100.00
59106;BME280;44891;50.204;8.132;2023-11-21T04:46:51;97734.38;;;7.68;100.00
59106;BME280;44891;50.204;8.132;2023-11-21T04:50:54;97744.53;;;7.53;100.00
59106;BME280;44891;50.204;8.132;2023-11-21T04:54:56;97747.81;;;7.48;100.00
59106;BME280;44891;50.204;8.132;2023-11-21T04:58:59;97752.34;;;7.53;100.00
59106;BME280;44891;50.204;8.132;2023-11-21T05:03:01;97755.72;;;7.65;100.00
59106;BME280;44891;50.204;8.132;2023-11-21T05:07:04;97749.25;;;7.68;100.00
59106;BME280;44891;50.204;8.132;2023-11-21T05:11:06;97754.34;;;7.86;100.00
59106;BME280;44891;50.204;8.132;2023-11-21T05:15:12;97761.84;;;7.71;100.00
59106;BME280;44891;50.204;8.132;2023-11-21T05:19:15;97758.31;;;7.77;100.00
59106;BME280;44891;50.204;8.132;2023-11-21T05:23:18;97773.13;;;7.59;100.00
59106;BME280;44891;50.204;8.132;2023-11-21T05:27:20;97769.59;;;7.66;100.00
59106;BME280;44891;50.204;8.132;2023-11-21T05:31:22;97775.28;;;7.62;100.00
59106;BME280;44891;50.204;8.132;2023-11-21T05:35:24;97783.91;;;7.75;100.00
59106;BME280;44891;50.204;8.132;2023-11-21T05:39:28;97791.19;;;7.73;100.00
59106;BME280;44891;50.204;8.132;2023-11-21T05:43:30;97798.91;;;7.68;100.00
59106;BME280;44891;50.204;8.132;2023-11-21T05:47:33;97801.75;;;7.66;100.00
59106;BME280;44891;50.204;8.132;2023-11-21T05:51:34;97802.88;;;7.58;100.00
59106;BME280;44891;50.204;8.132;2023-11-21T05:55:38;97813.34;;;7.47;100.00
59106;BME280;44891;50.204;8.132;2023-11-21T05:59:40;97808.56;;;7.55;100.00
59106;BME280;44891;50.204;8.132;2023-11-21T06:03:41;97818.78;;;7.45;100.00
59106;BME280;44891;50.204;8.132;2023-11-21T06:07:43;97819.03;;;7.67;100.00
59106;BME280;44891;50.204;8.132;2023-11-21T06:11:47;97820.06;;;7.54;100.00
59106;BME280;44891;50.204;8.132;2023-11-21T06:15:49;97836.63;;;7.48;100.00
59106;BME280;44891;50.204;8.132;2023-11-21T06:19:51;97836.97;;;7.52;100.00
59106;BME280;44891;50.204;8.132;2023-11-21T06:23:53;97841.75;;;7.55;100.00
59106;BME280;44891;50.204;8.132;2023-11-21T06:27:58;97846.19;;;7.54;100.00
59106;BME280;44891;50.204;8.132;2023-11-21T06:32:00;97845.94;;;7.56;100.00
59106;BME280;44891;50.204;8.132;2023-11-21T06:36:03;97846.63;;;7.75;100.00
59106;BME280;44891;50.204;8.132;2023-11-21T06:40:07;97858.91;;;7.62;100.00
59106;BME280;44891;50.204;8.132;2023-11-21T06:44:11;97866.75;;;7.74;100.00
59106;BME280;44891;50.204;8.132;2023-11-21T06:48:14;97874.25;;;7.82;100.00
59106;BME280;44891;50.204;8.132;2023-11-21T06:52:15;97870.94;;;7.87;100.00
59106;BME280;44891;50.204;8.132;2023-11-21T06:56:18;97869.25;;;7.93;100.00
59106;BME280;44891;50.204;8.132;2023-11-21T07:00:21;97874.59;;;7.86;100.00
59106;BME280;44891;50.204;8.132;2023-11-21T07:04:23;97883.00;;;7.76;100.00
59106;BME280;44891;50.204;8.132;2023-11-21T07:08:26;97896.16;;;7.70;100.00
59106;BME280;44891;50.204;8.132;2023-11-21T07:12:28;97899.13;;;7.85;100.00
59106;BME280;44891;50.204;8.132;2023-11-21T07:16:32;97908.22;;;7.82;100.00
59106;BME280;44891;50.204;8.132;2023-11-21T07:20:35;97911.50;;;7.78;100.00
59106;BME280;44891;50.204;8.132;2023-11-21T07:24:37;97920.16;;;7.67;100.00
59106;BME280;44891;50.204;8.132;2023-11-21T07:28:39;97928.00;;;7.67;100.00
59106;BME280;44891;50.204;8.132;2023-11-21T07:32:42;97930.63;;;7.67;100.00
59106;BME280;44891;50.204;8.132;2023-11-21T07:36:45;97933.44;;;7.77;100.00
59106;BME280;44891;50.204;8.132;2023-11-21T07:40:47;97944.47;;;7.79;100.00
59106;BME280;44891;50.204;8.132;2023-11-21T07:44:49;97946.66;;;7.82;100.00
59106;BME280;44891;50.204;8.132;2023-11-21T07:48:52;97950.19;;;7.99;100.00
59106;BME280;44891;50.204;8.132;2023-11-21T07:52:54;97956.88;;;7.95;100.00
59106;BME280;44891;50.204;8.132;2023-11-21T07:56:56;97964.28;;;7.86;100.00
59106;BME280;44891;50.204;8.132;2023-11-21T08:00:58;97969.91;;;7.72;100.00
59106;BME280;44891;50.204;8.132;2023-11-21T08:05:01;97973.88;;;7.62;100.00
59106;BME280;44891;50.204;8.132;2023-11-21T08:09:03;97970.59;;;7.67;100.00
59106;BME280;44891;50.204;8.132;2023-11-21T08:13:05;97980.38;;;7.72;100.00
59106;BME280;44891;50.204;8.132;2023-11-21T08:17:09;97985.81;;;7.70;100.00
59106;BME280;44891;50.204;8.132;2023-11-21T08:21:13;97980.75;;;7.87;100.00
59106;BME280;44891;50.204;8.132;2023-11-21T08:25:15;97996.97;;;7.77;100.00
59106;BME280;44891;50.204;8.132;2023-11-21T08:29:20;97996.34;;;7.94;100.00
59106;BME280;44891;50.204;8.132;2023-11-21T08:33:22;98003.03;;;8.01;100.00
59106;BME280;44891;50.204;8.132;2023-11-21T08:37:25;98007.00;;;8.04;100.00
59106;BME280;44891;50.204;8.132;2023-11-21T08:41:27;98012.91;;;7.76;100.00
59106;BME280;44891;50.204;8.132;2023-11-21T08:45:31;98019.50;;;7.90;100.00
59106;BME280;44891;50.204;8.132;2023-11-21T08:49:34;98008.84;;;8.03;100.00
59106;BME280;44891;50.204;8.132;2023-11-21T08:53:38;98019.38;;;7.73;100.00
59106;BME280;44891;50.204;8.132;2023-11-21T08:57:40;98018.38;;;8.09;100.00
59106;BME280;44891;50.204;8.132;2023-11-21T09:01:42;98012.59;;;8.19;100.00
59106;BME280;44891;50.204;8.132;2023-11-21T09:05:44;98021.56;;;8.11;100.00
59106;BME280;44891;50.204;8.132;2023-11-21T09:09:47;98029.09;;;8.20;100.00
59106;BME280;44891;50.204;8.132;2023-11-21T09:13:49;98023.53;;;8.28;100.00
59106;BME280;44891;50.204;8.132;2023-11-21T09:17:51;98032.66;;;8.49;100.00
59106;BME280;44891;50.204;8.132;2023-11-21T09:21:53;98039.78;;;8.77;100.00
59106;BME280;44891;50.204;8.132;2023-11-21T09:25:59;98037.25;;;8.82;100.00
59106;BME280;44891;50.204;8.132;2023-11-21T09:30:01;98039.75;;;8.88;100.00
59106;BME280;44891;50.204;8.132;2023-11-21T09:34:05;98038.13;;;9.39;100.00
59106;BME280;44891;50.204;8.132;2023-11-21T09:38:08;98038.16;;;9.56;100.00
59106;BME280;44891;50.204;8.132;2023-11-21T09:42:14;98046.22;;;9.38;100.00
59106;BME280;44891;50.204;8.132;2023-11-21T09:46:17;98049.59;;;9.10;100.00
59106;BME280;44891;50.204;8.132;2023-11-21T09:50:22;98058.56;;;9.25;100.00
59106;BME280;44891;50.204;8.132;2023-11-21T09:54:25;98053.78;;;9.22;100.00
59106;BME280;44891;50.204;8.132;2023-11-21T09:58:28;98065.22;;;9.45;100.00
59106;BME280;44891;50.204;8.132;2023-11-21T10:02:30;98064.38;;;9.56;100.00
59106;BME280;44891;50.204;8.132;2023-11-21T10:06:36;98067.34;;;9.76;100.00
59106;BME280;44891;50.204;8.132;2023-11-21T10:10:42;98075.78;;;9.78;100.00
59106;BME280;44891;50.204;8.132;2023-11-21T10:14:47;98077.75;;;9.43;100.00
59106;BME280;44891;50.204;8.132;2023-11-21T10:18:50;98079.69;;;9.47;100.00
59106;BME280;44891;50.204;8.132;2023-11-21T10:22:54;98085.44;;;9.61;100.00
59106;BME280;44891;50.204;8.132;2023-11-21T10:26:57;98080.91;;;10.02;100.00
59106;BME280;44891;50.204;8.132;2023-11-21T10:31:00;98090.63;;;10.18;100.00
59106;BME280;44891;50.204;8.132;2023-11-21T10:35:02;98086.81;;;11.20;92.90
59106;BME280;44891;50.204;8.132;2023-11-21T10:39:07;98089.22;;;10.27;97.06
59106;BME280;44891;50.204;8.132;2023-11-21T10:43:10;98088.25;;;10.89;94.75
59106;BME280;44891;50.204;8.132;2023-11-21T10:47:14;98091.81;;;10.61;96.06
59106;BME280;44891;50.204;8.132;2023-11-21T10:51:16;98092.16;;;10.48;95.83
59106;BME280;44891;50.204;8.132;2023-11-21T10:55:20;98082.75;;;10.52;94.09
59106;BME280;44891;50.204;8.132;2023-11-21T10:59:24;98093.69;;;10.44;96.93
59106;BME280;44891;50.204;8.132;2023-11-21T11:03:28;98094.78;;;10.31;97.80
59106;BME280;44891;50.204;8.132;2023-11-21T11:07:30;98085.13;;;10.37;97.91
59106;BME280;44891;50.204;8.132;2023-11-21T11:11:34;98093.19;;;10.30;97.30
59106;BME280;44891;50.204;8.132;2023-11-21T11:15:39;98094.16;;;9.95;96.75
59106;BME280;44891;50.204;8.132;2023-11-21T11:19:42;98104.81;;;9.89;98.32
59106;BME280;44891;50.204;8.132;2023-11-21T11:23:46;98104.50;;;9.85;99.32
59106;BME280;44891;50.204;8.132;2023-11-21T11:27:54;98097.84;;;10.11;96.91
59106;BME280;44891;50.204;8.132;2023-11-21T11:32:00;98094.00;;;10.30;94.17
59106;BME280;44891;50.204;8.132;2023-11-21T11:36:09;98100.72;;;9.24;100.00
59106;BME280;44891;50.204;8.132;2023-11-21T11:40:12;98102.03;;;9.78;100.00
59106;BME280;44891;50.204;8.132;2023-11-21T11:48:30;98100.69;;;9.36;100.00
59106;BME280;44891;50.204;8.132;2023-11-21T11:52:38;98106.31;;;9.27;100.00
59106;BME280;44891;50.204;8.132;2023-11-21T11:56:40;98104.22;;;9.30;100.00
59106;BME280;44891;50.204;8.132;2023-11-21T12:00:45;98107.66;;;9.87;100.00
59106;BME280;44891;50.204;8.132;2023-11-21T12:04:49;98100.63;;;9.59;99.52
59106;BME280;44891;50.204;8.132;2023-11-21T12:08:52;98109.91;;;9.95;98.89
59106;BME280;44891;50.204;8.132;2023-11-21T12:12:54;98110.84;;;9.89;99.10
59106;BME280;44891;50.204;8.132;2023-11-21T12:16:56;98120.22;;;9.85;96.60
59106;BME280;44891;50.204;8.132;2023-11-21T12:20:59;98120.16;;;9.97;96.22
59106;BME280;44891;50.204;8.132;2023-11-21T12:25:03;98116.50;;;10.99;91.43
59106;BME280;44891;50.204;8.132;2023-11-21T12:29:05;98122.38;;;10.67;91.17
59106;BME280;44891;50.204;8.132;2023-11-21T12:33:08;98125.81;;;10.51;93.01
59106;BME280;44891;50.204;8.132;2023-11-21T12:37:10;98133.06;;;10.15;94.06
59106;BME280;44891;50.204;8.132;2023-11-21T12:41:14;98138.66;;;9.90;96.53
59106;BME280;44891;50.204;8.132;2023-11-21T12:45:21;98137.66;;;9.91;96.13
59106;BME280;44891;50.204;8.132;2023-11-21T12:49:23;98136.31;;;9.48;99.78
59106;BME280;44891;50.204;8.132;2023-11-21T12:53:25;98146.47;;;9.85;98.07
59106;BME280;44891;50.204;8.132;2023-11-21T12:57:28;98144.25;;;9.65;96.47
59106;BME280;44891;50.204;8.132;2023-11-21T13:01:30;98139.25;;;10.38;92.20
59106;BME280;44891;50.204;8.132;2023-11-21T13:05:32;98138.22;;;10.72;89.73
59106;BME280;44891;50.204;8.132;2023-11-21T13:09:34;98143.84;;;9.85;93.25
59106;BME280;44891;50.204;8.132;2023-11-21T13:13:39;98149.41;;;9.60;95.76
59106;BME280;44891;50.204;8.132;2023-11-21T13:17:42;98157.84;;;9.50;98.49
59106;BME280;44891;50.204;8.132;2023-11-21T13:21:45;98168.41;;;9.27;98.87
59106;BME280;44891;50.204;8.132;2023-11-21T13:25:47;98170.81;;;8.93;100.00
59106;BME280;44891;50.204;8.132;2023-11-21T13:29:50;98179.34;;;9.01;100.00
59106;BME280;44891;50.204;8.132;2023-11-21T13:33:53;98183.22;;;8.86;100.00
59106;BME280;44891;50.204;8.132;2023-11-21T13:38:02;98184.34;;;8.90;100.00
59106;BME280;44891;50.204;8.132;2023-11-21T13:42:04;98184.34;;;9.02;99.14
59106;BME280;44891;50.204;8.132;2023-11-21T13:46:08;98182.78;;;9.01;99.24
59106;BME280;44891;50.204;8.132;2023-11-21T13:50:15;98195.31;;;8.99;100.00
59106;BME280;44891;50.204;8.132;2023-11-21T13:54:23;98192.91;;;9.09;98.79
59106;BME280;44891;50.204;8.132;2023-11-21T13:58:25;98189.94;;;9.06;99.01
59106;BME280;44891;50.204;8.132;2023-11-21T14:02:41;98191.06;;;9.21;98.39
59106;BME280;44891;50.204;8.132;2023-11-21T14:06:44;98188.25;;;9.11;98.98
59106;BME280;44891;50.204;8.132;2023-11-21T14:10:48;98198.38;;;8.96;99.41
59106;BME280;44891;50.204;8.132;2023-11-21T14:14:56;98202.25;;;9.05;100.00
59106;BME280;44891;50.204;8.132;2023-11-21T14:18:59;98200.31;;;9.12;100.00
59106;BME280;44891;50.204;8.132;2023-11-21T14:23:14;98191.63;;;9.35;99.65
59106;BME280;44891;50.204;8.132;2023-11-21T14:27:16;98200.19;;;9.07;100.00
59106;BME280;44891;50.204;8.132;2023-11-21T14:31:18;98205.09;;;8.92;100.00
59106;BME280;44891;50.204;8.132;2023-11-21T14:35:23;98211.34;;;8.91;100.00
59106;BME280;44891;50.204;8.132;2023-11-21T14:39:25;98210.66;;;8.84;100.00
59106;BME280;44891;50.204;8.132;2023-11-21T14:43:28;98217.25;;;8.75;100.00
59106;BME280;44891;50.204;8.132;2023-11-21T14:47:34;98220.53;;;8.70;100.00
59106;BME280;44891;50.204;8.132;2023-11-21T14:51:40;98228.66;;;8.80;100.00
59106;BME280;44891;50.204;8.132;2023-11-21T14:56:00;98232.38;;;8.61;100.00
59106;BME280;44891;50.204;8.132;2023-11-21T15:00:05;98239.91;;;8.69;100.00
59106;BME280;44891;50.204;8.132;2023-11-21T15:04:10;98250.72;;;8.73;100.00
59106;BME280;44891;50.204;8.132;2023-11-21T15:08:22;98250.88;;;8.48;100.00
59106;BME280;44891;50.204;8.132;2023-11-21T15:12:30;98256.41;;;8.69;100.00
59106;BME280;44891;50.204;8.132;2023-11-21T15:16:35;98259.16;;;8.44;100.00
59106;BME280;44891;50.204;8.132;2023-11-21T15:20:40;98257.06;;;8.53;100.00
59106;BME280;44891;50.204;8.132;2023-11-21T15:24:44;98261.31;;;8.36;100.00
59106;BME280;44891;50.204;8.132;2023-11-21T15:28:47;98269.25;;;8.59;100.00
59106;BME280;44891;50.204;8.132;2023-11-21T15:32:49;98278.31;;;8.57;100.00
59106;BME280;44891;50.204;8.132;2023-11-21T15:36:50;98277.94;;;8.71;100.00
59106;BME280;44891;50.204;8.132;2023-11-21T15:40:56;98274.25;;;8.61;100.00
59106;BME280;44891;50.204;8.132;2023-11-21T15:44:59;98283.22;;;8.53;100.00
59106;BME280;44891;50.204;8.132;2023-11-21T15:49:01;98283.03;;;8.36;100.00
59106;BME280;44891;50.204;8.132;2023-11-21T15:53:04;98283.75;;;8.43;100.00
59106;BME280;44891;50.204;8.132;2023-11-21T15:57:09;98291.06;;;8.53;100.00
59106;BME280;44891;50.204;8.132;2023-11-21T16:01:11;98291.91;;;8.65;100.00
59106;BME280;44891;50.204;8.132;2023-11-21T16:05:14;98292.22;;;8.57;100.00
59106;BME280;44891;50.204;8.132;2023-11-21T16:09:17;98300.63;;;8.48;100.00
59106;BME280;44891;50.204;8.132;2023-11-21T16:13:24;98293.00;;;8.46;100.00
59106;BME280;44891;50.204;8.132;2023-11-21T16:17:26;98300.84;;;8.46;100.00
59106;BME280;44891;50.204;8.132;2023-11-21T16:21:27;98300.69;;;8.41;100.00
59106;BME280;44891;50.204;8.132;2023-11-21T16:25:29;98311.81;;;8.36;100.00
59106;BME280;44891;50.204;8.132;2023-11-21T16:29:33;98304.91;;;8.42;100.00
59106;BME280;44891;50.204;8.132;2023-11-21T16:33:35;98314.88;;;8.33;100.00
59106;BME280;44891;50.204;8.132;2023-11-21T16:37:37;98320.47;;;8.37;100.00
59106;BME280;44891;50.204;8.132;2023-11-21T16:41:39;98326.34;;;8.32;100.00
59106;BME280;44891;50.204;8.132;2023-11-21T16:45:42;98331.88;;;8.24;100.00
59106;BME280;44891;50.204;8.132;2023-11-21T16:49:49;98340.41;;;8.20;100.00
59106;BME280;44891;50.204;8.132;2023-11-21T16:53:51;98344.44;;;8.15;100.00
59106;BME280;44891;50.204;8.132;2023-11-21T16:57:53;98360.72;;;8.17;100.00
59106;BME280;44891;50.204;8.132;2023-11-21T17:01:56;98368.38;;;8.19;100.00
59106;BME280;44891;50.204;8.132;2023-11-21T17:05:59;98366.81;;;8.30;100.00
59106;BME280;44891;50.204;8.132;2023-11-21T17:10:00;98366.34;;;8.39;100.00
59106;BME280;44891;50.204;8.132;2023-11-21T17:14:03;98377.75;;;8.27;100.00
59106;BME280;44891;50.204;8.132;2023-11-21T17:18:07;98383.84;;;8.21;100.00
59106;BME280;44891;50.204;8.132;2023-11-21T17:22:09;98378.75;;;8.26;100.00
59106;BME280;44891;50.204;8.132;2023-11-21T17:26:12;98384.72;;;8.33;100.00
59106;BME280;44891;50.204;8.132;2023-11-21T17:30:16;98385.72;;;8.32;100.00
59106;BME280;44891;50.204;8.132;2023-11-21T17:34:20;98392.56;;;8.33;100.00
59106;BME280;44891;50.204;8.132;2023-11-21T17:38:22;98400.41;;;8.33;100.00
59106;BME280;44891;50.204;8.132;2023-11-21T17:42:25;98410.50;;;8.29;100.00
59106;BME280;44891;50.204;8.132;2023-11-21T17:46:29;98415.38;;;8.26;100.00
59106;BME280;44891;50.204;8.132;2023-11-21T17:50:32;98420.41;;;8.27;100.00
59106;BME280;44891;50.204;8.132;2023-11-21T17:54:34;98414.69;;;8.37;100.00
59106;BME280;44891;50.204;8.132;2023-11-21T17:58:40;98425.28;;;8.42;100.00
59106;BME280;44891;50.204;8.132;2023-11-21T18:02:43;98431.41;;;8.36;100.00
59106;BME280;44891;50.204;8.132;2023-11-21T18:06:46;98425.56;;;8.34;100.00
59106;BME280;44891;50.204;8.132;2023-11-21T18:10:48;98440.38;;;8.22;100.00
59106;BME280;44891;50.204;8.132;2023-11-21T18:14:50;98436.78;;;8.41;100.00
59106;BME280;44891;50.204;8.132;2023-11-21T18:18:52;98443.16;;;8.27;100.00
59106;BME280;44891;50.204;8.132;2023-11-21T18:22:55;98454.03;;;8.24;100.00
59106;BME280;44891;50.204;8.132;2023-11-21T18:26:57;98453.81;;;8.25;100.00
59106;BME280;44891;50.204;8.132;2023-11-21T18:30:59;98457.19;;;8.32;100.00
59106;BME280;44891;50.204;8.132;2023-11-21T18:35:01;98472.66;;;8.34;100.00
59106;BME280;44891;50.204;8.132;2023-11-21T18:39:04;98482.41;;;8.45;100.00
59106;BME280;44891;50.204;8.132;2023-11-21T18:43:08;98486.38;;;8.29;100.00
59106;BME280;44891;50.204;8.132;2023-11-21T18:47:10;98492.97;;;8.13;100.00
59106;BME280;44891;50.204;8.132;2023-11-21T18:51:15;98513.97;;;8.07;100.00
59106;BME280;44891;50.204;8.132;2023-11-21T18:55:18;98524.09;;;7.97;100.00
59106;BME280;44891;50.204;8.132;2023-11-21T18:59:20;98531.94;;;7.97;100.00
59106;BME280;44891;50.204;8.132;2023-11-21T19:03:22;98547.38;;;7.80;100.00
59106;BME280;44891;50.204;8.132;2023-11-21T19:07:24;98562.34;;;7.66;100.00
59106;BME280;44891;50.204;8.132;2023-11-21T19:11:29;98572.16;;;7.71;100.00
59106;BME280;44891;50.204;8.132;2023-11-21T19:15:31;98590.50;;;7.57;100.00
59106;BME280;44891;50.204;8.132;2023-11-21T19:19:33;98599.31;;;7.25;100.00
59106;BME280;44891;50.204;8.132;2023-11-21T19:23:35;98613.94;;;6.68;100.00
59106;BME280;44891;50.204;8.132;2023-11-21T19:27:38;98617.13;;;6.57;100.00
59106;BME280;44891;50.204;8.132;2023-11-21T19:31:40;98625.19;;;6.35;100.00
59106;BME280;44891;50.204;8.132;2023-11-21T19:35:42;98629.19;;;6.24;100.00
59106;BME280;44891;50.204;8.132;2023-11-21T19:39:44;98634.56;;;6.03;100.00
59106;BME280;44891;50.204;8.132;2023-11-21T19:43:47;98639.94;;;5.88;100.00
59106;BME280;44891;50.204;8.132;2023-11-21T19:47:49;98644.56;;;5.93;100.00
59106;BME280;44891;50.204;8.132;2023-11-21T19:51:51;98644.47;;;5.73;100.00
59106;BME280;44891;50.204;8.132;2023-11-21T19:55:53;98649.53;;;5.75;100.00
59106;BME280;44891;50.204;8.132;2023-11-21T19:59:57;98654.81;;;5.94;100.00
59106;BME280;44891;50.204;8.132;2023-11-21T20:03:59;98661.88;;;5.59;100.00
59106;BME280;44891;50.204;8.132;2023-11-21T20:08:00;98665.72;;;5.70;100.00
59106;BME280;44891;50.204;8.132;2023-11-21T20:12:03;98668.97;;;5.85;100.00
59106;BME280;44891;50.204;8.132;2023-11-21T20:16:06;98671.34;;;5.73;100.00
59106;BME280;44891;50.204;8.132;2023-11-21T20:20:08;98675.78;;;5.80;100.00
59106;BME280;44891;50.204;8.132;2023-11-21T20:24:11;98694.22;;;5.78;100.00
59106;BME280;44891;50.204;8.132;2023-11-21T20:28:13;98696.19;;;5.63;100.00
59106;BME280;44891;50.204;8.132;2023-11-21T20:32:17;98707.13;;;5.52;100.00
59106;BME280;44891;50.204;8.132;2023-11-21T20:36:25;98628.19;;;4.75;100.00
59106;BME280;44891;50.204;8.132;2023-11-21T20:40:26;98713.22;;;5.24;100.00
59106;BME280;44891;50.204;8.132;2023-11-21T20:44:28;98714.22;;;5.23;100.00
59106;BME280;44891;50.204;8.132;2023-11-21T20:48:31;98708.97;;;5.16;100.00
59106;BME280;44891;50.204;8.132;2023-11-21T20:52:33;98723.13;;;5.14;100.00
59106;BME280;44891;50.204;8.132;2023-11-21T20:56:35;98713.44;;;5.01;100.00
59106;BME280;44891;50.204;8.132;2023-11-21T21:00:37;98727.66;;;4.99;100.00
59106;BME280;44891;50.204;8.132;2023-11-21T21:04:40;98726.94;;;4.83;100.00
59106;BME280;44891;50.204;8.132;2023-11-21T21:08:42;98724.44;;;4.97;100.00
59106;BME280;44891;50.204;8.132;2023-11-21T21:12:44;98727.34;;;4.87;100.00
59106;BME280;44891;50.204;8.132;2023-11-21T21:16:46;98740.06;;;4.75;100.00
59106;BME280;44891;50.204;8.132;2023-11-21T21:20:49;98739.56;;;4.86;100.00
59106;BME280;44891;50.204;8.132;2023-11-21T21:24:51;98753.47;;;4.72;100.00
59106;BME280;44891;50.204;8.132;2023-11-21T21:28:53;98757.31;;;4.76;100.00
59106;BME280;44891;50.204;8.132;2023-11-21T21:32:57;98762.25;;;4.71;100.00